createdAt,value
2017-12-01T00:00:57.099Z,0
2017-12-01T00:02:05.634Z,0
2017-12-01T00:03:14.173Z,0
2017-12-01T00:04:22.974Z,0
2017-12-01T00:05:31.775Z,0
2017-12-01T00:06:40.852Z,0
2017-12-01T00:07:49.661Z,0
2017-12-01T00:08:58.467Z,0
2017-12-01T00:10:07.322Z,0
2017-12-01T00:11:16.128Z,0
2017-12-01T00:12:24.939Z,0
2017-12-01T00:13:34.014Z,0
2017-12-01T00:14:43.092Z,0
2017-12-01T00:15:51.627Z,0
2017-12-01T00:17:00.695Z,0
2017-12-01T00:18:09.234Z,0
2017-12-01T00:19:18.575Z,0
2017-12-01T00:20:27.108Z,0
2017-12-01T00:21:35.913Z,0
2017-12-01T00:22:44.722Z,0
2017-12-01T00:23:53.775Z,0
2017-12-01T00:25:02.312Z,0
2017-12-01T00:26:11.117Z,0
2017-12-01T00:27:20.231Z,0
2017-12-01T00:28:28.989Z,0
2017-12-01T00:29:38.070Z,0
2017-12-01T00:30:46.604Z,0
2017-12-01T00:31:55.410Z,0
2017-12-01T00:33:03.945Z,0
2017-12-01T00:34:13.017Z,0
2017-12-01T00:35:21.824Z,0
2017-12-01T00:36:32.155Z,0
2017-12-01T00:37:40.960Z,0
2017-12-01T00:38:49.495Z,0
2017-12-01T00:39:58.036Z,0
2017-12-01T00:41:07.105Z,0
2017-12-01T00:42:15.643Z,0
2017-12-01T00:43:24.715Z,0
2017-12-01T00:44:33.514Z,0
2017-12-01T00:45:42.314Z,0
2017-12-01T00:46:51.385Z,0
2017-12-01T00:47:59.923Z,0
2017-12-01T00:49:08.728Z,0
2017-12-01T00:50:17.569Z,0
2017-12-01T00:51:26.340Z,0
2017-12-01T00:52:35.141Z,0
2017-12-01T00:53:43.946Z,0
2017-12-01T00:54:53.016Z,0
2017-12-01T00:56:02.086Z,0
2017-12-01T00:57:10.888Z,0
2017-12-01T00:58:19.691Z,0
2017-12-01T00:59:28.501Z,0
2017-12-01T01:00:37.575Z,0
2017-12-01T01:01:46.380Z,0
2017-12-01T01:02:55.181Z,0
2017-12-01T01:04:03.720Z,0
2017-12-01T01:05:12.258Z,0
2017-12-01T01:06:21.594Z,0
2017-12-01T01:07:30.659Z,0
2017-12-01T01:08:39.460Z,0
2017-12-01T01:09:48.262Z,0
2017-12-01T01:10:56.799Z,0
2017-12-01T01:12:05.600Z,0
2017-12-01T01:13:14.135Z,0
2017-12-01T01:14:23.202Z,0
2017-12-01T01:15:31.735Z,0
2017-12-01T01:16:40.802Z,0
2017-12-01T01:17:49.871Z,0
2017-12-01T01:18:58.405Z,0
2017-12-01T01:20:07.213Z,0
2017-12-01T01:21:16.016Z,0
2017-12-01T01:22:24.816Z,0
2017-12-01T01:23:34.157Z,0
2017-12-01T01:24:42.959Z,0
2017-12-01T01:25:52.027Z,0
2017-12-01T01:27:00.560Z,0
2017-12-01T01:28:09.362Z,0
2017-12-01T01:29:18.438Z,0
2017-12-01T01:30:27.511Z,0
2017-12-01T01:31:36.313Z,0
2017-12-01T01:32:45.377Z,0
2017-12-01T01:33:53.917Z,0
2017-12-01T01:35:02.449Z,0
2017-12-01T01:36:10.983Z,0
2017-12-01T01:37:19.782Z,0
2017-12-01T01:38:28.319Z,0
2017-12-01T01:39:36.851Z,0
2017-12-01T01:40:45.390Z,0
2017-12-01T01:41:53.918Z,0
2017-12-01T01:43:02.452Z,0
2017-12-01T01:44:11.260Z,0
2017-12-01T01:45:19.797Z,0
2017-12-01T01:46:28.599Z,0
2017-12-01T01:47:37.935Z,0
2017-12-01T01:48:46.471Z,0
2017-12-01T01:49:55.272Z,0
2017-12-01T01:51:03.806Z,0
2017-12-01T01:52:12.343Z,0
2017-12-01T01:53:21.413Z,0
2017-12-01T01:54:30.483Z,0
2017-12-01T01:55:39.289Z,0
2017-12-01T01:56:48.356Z,0
2017-12-01T01:57:57.157Z,0
2017-12-01T01:59:05.957Z,0
2017-12-01T02:00:14.493Z,0
2017-12-01T02:01:23.295Z,0
2017-12-01T02:02:32.097Z,0
2017-12-01T02:03:40.897Z,0
2017-12-01T02:04:49.434Z,0
2017-12-01T02:05:58.236Z,0
2017-12-01T02:07:06.767Z,0
2017-12-01T02:08:16.103Z,0
2017-12-01T02:09:24.637Z,0
2017-12-01T02:10:33.972Z,0
2017-12-01T02:11:42.506Z,0
2017-12-01T02:12:51.572Z,0
2017-12-01T02:14:00.640Z,0
2017-12-01T02:15:10.244Z,0
2017-12-01T02:16:19.046Z,0
2017-12-01T02:17:27.844Z,0
2017-12-01T02:18:36.647Z,0
2017-12-01T02:19:45.450Z,0
2017-12-01T02:20:54.254Z,0
2017-12-01T02:22:03.589Z,0
2017-12-01T02:23:12.395Z,0
2017-12-01T02:24:20.929Z,0
2017-12-01T02:25:29.729Z,0
2017-12-01T02:26:38.537Z,0
2017-12-01T02:27:47.664Z,0
2017-12-01T02:28:56.196Z,0
2017-12-01T02:30:04.730Z,0
2017-12-01T02:31:13.265Z,0
2017-12-01T02:32:22.883Z,0
2017-12-01T02:33:31.415Z,0
2017-12-01T02:34:39.952Z,0
2017-12-01T02:35:49.028Z,0
2017-12-01T02:36:58.098Z,0
2017-12-01T02:38:06.898Z,0
2017-12-01T02:39:15.978Z,0
2017-12-01T02:40:24.777Z,0
2017-12-01T02:41:33.592Z,0
2017-12-01T02:42:42.123Z,0
2017-12-01T02:43:50.926Z,0
2017-12-01T02:44:59.467Z,0
2017-12-01T02:46:08.261Z,0
2017-12-01T02:47:17.063Z,0
2017-12-01T02:48:25.596Z,0
2017-12-01T02:49:34.666Z,0
2017-12-01T02:50:43.200Z,0
2017-12-01T02:51:52.272Z,0
2017-12-01T02:53:01.605Z,0
2017-12-01T02:54:10.752Z,0
2017-12-01T02:55:19.821Z,0
2017-12-01T02:56:28.357Z,0
2017-12-01T02:57:36.894Z,0
2017-12-01T02:58:45.697Z,0
2017-12-01T02:59:54.765Z,0
2017-12-01T03:01:03.570Z,0
2017-12-01T03:02:12.103Z,0
2017-12-01T03:03:20.905Z,0
2017-12-01T03:04:29.979Z,0
2017-12-01T03:05:38.780Z,0
2017-12-01T03:06:47.845Z,0
2017-12-01T03:07:56.380Z,0
2017-12-01T03:09:04.947Z,0
2017-12-01T03:10:13.721Z,0
2017-12-01T03:11:22.525Z,0
2017-12-01T03:12:31.060Z,0
2017-12-01T03:13:39.595Z,0
2017-12-01T03:14:48.131Z,0
2017-12-01T03:15:57.465Z,0
2017-12-01T03:17:05.999Z,0
2017-12-01T03:18:14.797Z,0
2017-12-01T03:19:23.332Z,0
2017-12-01T03:20:32.134Z,0
2017-12-01T03:21:41.203Z,0
2017-12-01T03:22:50.006Z,0
2017-12-01T03:23:58.543Z,0
2017-12-01T03:25:07.377Z,0
2017-12-01T03:26:15.882Z,0
2017-12-01T03:27:24.952Z,0
2017-12-01T03:28:34.019Z,0
2017-12-01T03:29:42.551Z,0
2017-12-01T03:30:51.356Z,0
2017-12-01T03:32:00.158Z,0
2017-12-01T03:33:08.957Z,0
2017-12-01T03:34:17.765Z,0
2017-12-01T03:35:26.297Z,0
2017-12-01T03:36:37.596Z,0
2017-12-01T03:37:46.130Z,0
2017-12-01T03:38:54.930Z,0
2017-12-01T03:40:04.002Z,0
2017-12-01T03:41:12.536Z,0
2017-12-01T03:42:21.068Z,0
2017-12-01T03:43:29.870Z,0
2017-12-01T03:44:38.413Z,0
2017-12-01T03:45:47.217Z,0
2017-12-01T03:46:55.751Z,0
2017-12-01T03:48:04.559Z,0
2017-12-01T03:49:13.091Z,0
2017-12-01T03:50:21.888Z,0
2017-12-01T03:51:30.424Z,0
2017-12-01T03:52:39.491Z,0
2017-12-01T03:53:48.293Z,0
2017-12-01T03:54:57.096Z,0
2017-12-01T03:56:05.897Z,0
2017-12-01T03:57:14.695Z,0
2017-12-01T03:58:23.231Z,0
2017-12-01T03:59:32.032Z,0
2017-12-01T04:00:40.834Z,0
2017-12-01T04:01:49.637Z,0
2017-12-01T04:02:58.762Z,0
2017-12-01T04:04:07.840Z,0
2017-12-01T04:05:16.376Z,0
2017-12-01T04:06:24.910Z,0
2017-12-01T04:07:33.711Z,0
2017-12-01T04:08:42.513Z,0
2017-12-01T04:09:51.055Z,0
2017-12-01T04:10:59.587Z,0
2017-12-01T04:12:08.122Z,0
2017-12-01T04:13:16.655Z,0
2017-12-01T04:14:25.461Z,0
2017-12-01T04:15:34.263Z,0
2017-12-01T04:16:42.795Z,0
2017-12-01T04:17:51.332Z,0
2017-12-01T04:18:59.868Z,0
2017-12-01T04:20:08.671Z,0
2017-12-01T04:21:17.478Z,0
2017-12-01T04:22:26.019Z,0
2017-12-01T04:23:34.815Z,0
2017-12-01T04:24:43.615Z,0
2017-12-01T04:25:52.417Z,0
2017-12-01T04:27:01.538Z,0
2017-12-01T04:28:10.082Z,0
2017-12-01T04:29:19.419Z,0
2017-12-01T04:30:27.958Z,0
2017-12-01T04:31:36.493Z,0
2017-12-01T04:32:45.564Z,0
2017-12-01T04:33:54.099Z,0
2017-12-01T04:35:02.900Z,0
2017-12-01T04:36:11.967Z,0
2017-12-01T04:37:21.035Z,0
2017-12-01T04:38:29.832Z,0
2017-12-01T04:39:38.365Z,0
2017-12-01T04:40:47.170Z,0
2017-12-01T04:41:56.025Z,0
2017-12-01T04:43:04.828Z,0
2017-12-01T04:44:13.633Z,0
2017-12-01T04:45:22.173Z,0
2017-12-01T04:46:30.976Z,0
2017-12-01T04:47:39.775Z,0
2017-12-01T04:48:48.309Z,0
2017-12-01T04:49:57.111Z,0
2017-12-01T04:51:05.946Z,0
2017-12-01T04:52:15.014Z,0
2017-12-01T04:53:23.551Z,0
2017-12-01T04:54:32.083Z,0
2017-12-01T04:55:40.888Z,0
2017-12-01T04:56:49.966Z,0
2017-12-01T04:57:58.766Z,0
2017-12-01T04:59:07.567Z,0
2017-12-01T05:00:16.099Z,0
2017-12-01T05:01:24.910Z,0
2017-12-01T05:02:33.441Z,0
2017-12-01T05:03:41.971Z,0
2017-12-01T05:04:50.507Z,0
2017-12-01T05:05:59.310Z,0
2017-12-01T05:07:08.112Z,0
2017-12-01T05:08:16.645Z,0
2017-12-01T05:09:25.716Z,0
2017-12-01T05:10:34.785Z,0
2017-12-01T05:11:43.855Z,0
2017-12-01T05:12:52.388Z,0
2017-12-01T05:14:01.731Z,0
2017-12-01T05:15:10.267Z,0
2017-12-01T05:16:19.068Z,0
2017-12-01T05:17:28.135Z,0
2017-12-01T05:18:36.937Z,0
2017-12-01T05:19:45.764Z,0
2017-12-01T05:20:54.963Z,0
2017-12-01T05:22:03.947Z,0
2017-12-01T05:23:13.021Z,0
2017-12-01T05:24:21.553Z,0
2017-12-01T05:25:30.087Z,0
2017-12-01T05:26:39.093Z,0
2017-12-01T05:27:48.173Z,0
2017-12-01T05:28:57.516Z,0
2017-12-01T05:30:06.315Z,0
2017-12-01T05:31:15.115Z,0
2017-12-01T05:32:23.931Z,0
2017-12-01T05:33:32.731Z,0
2017-12-01T05:34:41.533Z,0
2017-12-01T05:35:50.334Z,0
2017-12-01T05:36:59.409Z,0
2017-12-01T05:38:08.479Z,0
2017-12-01T05:39:17.550Z,0
2017-12-01T05:40:26.886Z,0
2017-12-01T05:41:35.702Z,0
2017-12-01T05:42:44.773Z,0
2017-12-01T05:43:53.839Z,0
2017-12-01T05:45:03.173Z,0
2017-12-01T05:46:12.246Z,0
2017-12-01T05:47:20.780Z,0
2017-12-01T05:48:29.850Z,0
2017-12-01T05:49:38.652Z,0
2017-12-01T05:50:47.719Z,0
2017-12-01T05:51:56.788Z,0
2017-12-01T05:53:05.584Z,0
2017-12-01T05:54:14.475Z,0
2017-12-01T05:55:23.009Z,0
2017-12-01T05:56:31.867Z,0
2017-12-01T05:57:40.935Z,0
2017-12-01T05:58:50.001Z,0
2017-12-01T05:59:58.818Z,0
2017-12-01T06:01:08.432Z,0
2017-12-01T06:02:17.499Z,0
2017-12-01T06:03:26.037Z,0
2017-12-01T06:04:35.105Z,0
2017-12-01T06:05:43.639Z,0
2017-12-01T06:06:52.174Z,0
2017-12-01T06:08:00.706Z,0
2017-12-01T06:09:09.507Z,0
2017-12-01T06:10:18.306Z,0
2017-12-01T06:11:26.840Z,0
2017-12-01T06:12:35.640Z,0
2017-12-01T06:13:44.709Z,0
2017-12-01T06:14:53.511Z,0
2017-12-01T06:16:02.097Z,0
2017-12-01T06:17:10.636Z,0
2017-12-01T06:18:19.443Z,0
2017-12-01T06:19:27.978Z,0
2017-12-01T06:20:36.778Z,0
2017-12-01T06:21:45.579Z,0
2017-12-01T06:22:54.649Z,0
2017-12-01T06:24:03.186Z,0
2017-12-01T06:25:11.722Z,0
2017-12-01T06:26:20.256Z,0
2017-12-01T06:27:28.788Z,0
2017-12-01T06:28:37.592Z,0
2017-12-01T06:29:46.659Z,0
2017-12-01T06:30:55.742Z,0
2017-12-01T06:32:04.545Z,0
2017-12-01T06:33:13.339Z,0
2017-12-01T06:34:21.874Z,0
2017-12-01T06:35:30.411Z,0
2017-12-01T06:36:38.944Z,0
2017-12-01T06:37:47.746Z,0
2017-12-01T06:38:56.548Z,0
2017-12-01T06:40:05.348Z,0
2017-12-01T06:41:13.879Z,0
2017-12-01T06:42:22.409Z,0
2017-12-01T06:43:31.495Z,0
2017-12-01T06:44:40.031Z,4
2017-12-01T06:45:48.565Z,4
2017-12-01T06:46:57.902Z,0
2017-12-01T06:48:06.705Z,44
2017-12-01T06:49:15.776Z,60
2017-12-01T06:50:24.582Z,72
2017-12-01T06:51:33.114Z,80
2017-12-01T06:52:41.914Z,84
2017-12-01T06:53:50.448Z,84
2017-12-01T06:54:58.984Z,88
2017-12-01T06:56:07.521Z,92
2017-12-01T06:57:16.105Z,92
2017-12-01T06:58:24.661Z,88
2017-12-01T06:59:34.584Z,92
2017-12-01T07:00:43.119Z,96
2017-12-01T07:01:51.652Z,92
2017-12-01T07:03:00.450Z,96
2017-12-01T07:04:09.255Z,104
2017-12-01T07:05:18.054Z,104
2017-12-01T07:06:26.588Z,112
2017-12-01T07:07:35.392Z,116
2017-12-01T07:08:43.929Z,124
2017-12-01T07:09:52.726Z,128
2017-12-01T07:11:01.528Z,132
2017-12-01T07:12:10.064Z,140
2017-12-01T07:13:19.144Z,148
2017-12-01T07:14:27.946Z,156
2017-12-01T07:15:36.751Z,160
2017-12-01T07:16:45.290Z,160
2017-12-01T07:17:54.091Z,164
2017-12-01T07:19:03.158Z,172
2017-12-01T07:20:12.226Z,188
2017-12-01T07:21:20.759Z,200
2017-12-01T07:22:29.558Z,204
2017-12-01T07:23:38.092Z,232
2017-12-01T07:24:46.630Z,248
2017-12-01T07:25:55.699Z,244
2017-12-01T07:27:04.236Z,260
2017-12-01T07:28:12.769Z,268
2017-12-01T07:29:21.302Z,280
2017-12-01T07:30:29.834Z,276
2017-12-01T07:31:38.913Z,272
2017-12-01T07:32:47.445Z,300
2017-12-01T07:33:55.983Z,316
2017-12-01T07:35:04.513Z,328
2017-12-01T07:36:13.860Z,348
2017-12-01T07:37:22.393Z,388
2017-12-01T07:38:30.926Z,400
2017-12-01T07:39:39.993Z,412
2017-12-01T07:40:48.796Z,412
2017-12-01T07:41:57.329Z,404
2017-12-01T07:43:05.866Z,420
2017-12-01T07:44:14.403Z,464
2017-12-01T07:45:23.204Z,444
2017-12-01T07:46:31.741Z,480
2017-12-01T07:47:40.544Z,560
2017-12-01T07:48:49.884Z,608
2017-12-01T07:49:58.692Z,588
2017-12-01T07:51:07.495Z,568
2017-12-01T07:52:16.296Z,580
2017-12-01T07:53:25.364Z,668
2017-12-01T07:54:33.897Z,720
2017-12-01T07:55:42.699Z,744
2017-12-01T07:56:51.504Z,732
2017-12-01T07:58:00.571Z,684
2017-12-01T07:59:09.657Z,740
2017-12-01T08:00:18.468Z,896
2017-12-01T08:01:27.802Z,888
2017-12-01T08:02:36.607Z,1032
2017-12-01T08:03:45.414Z,1152
2017-12-01T08:04:54.483Z,1308
2017-12-01T08:06:03.287Z,1324
2017-12-01T08:07:11.819Z,1412
2017-12-01T08:08:20.623Z,1456
2017-12-01T08:09:29.691Z,1316
2017-12-01T08:10:39.030Z,1056
2017-12-01T08:11:47.565Z,916
2017-12-01T08:12:56.374Z,888
2017-12-01T08:14:04.909Z,896
2017-12-01T08:15:13.984Z,740
2017-12-01T08:16:22.522Z,708
2017-12-01T08:17:31.058Z,636
2017-12-01T08:18:40.133Z,676
2017-12-01T08:19:49.209Z,748
2017-12-01T08:20:57.743Z,736
2017-12-01T08:22:06.812Z,736
2017-12-01T08:23:15.344Z,764
2017-12-01T08:24:23.919Z,736
2017-12-01T08:25:32.725Z,772
2017-12-01T08:26:41.798Z,796
2017-12-01T08:27:50.329Z,744
2017-12-01T08:28:58.862Z,728
2017-12-01T08:30:07.683Z,684
2017-12-01T08:31:16.484Z,648
2017-12-01T08:32:25.285Z,676
2017-12-01T08:33:34.093Z,748
2017-12-01T08:34:42.895Z,708
2017-12-01T08:35:51.703Z,724
2017-12-01T08:37:00.240Z,720
2017-12-01T08:38:09.040Z,716
2017-12-01T08:39:17.847Z,752
2017-12-01T08:40:26.650Z,740
2017-12-01T08:41:35.453Z,916
2017-12-01T08:42:43.992Z,932
2017-12-01T08:43:52.796Z,1160
2017-12-01T08:45:02.130Z,1244
2017-12-01T08:46:11.033Z,1260
2017-12-01T08:47:20.107Z,1248
2017-12-01T08:48:28.641Z,1064
2017-12-01T08:49:37.716Z,984
2017-12-01T08:50:46.519Z,1256
2017-12-01T08:51:55.320Z,1220
2017-12-01T08:53:04.121Z,1300
2017-12-01T08:54:12.920Z,1212
2017-12-01T08:55:21.456Z,1272
2017-12-01T08:56:30.262Z,1268
2017-12-01T08:57:39.064Z,1108
2017-12-01T08:58:48.140Z,1248
2017-12-01T08:59:56.677Z,1268
2017-12-01T09:01:05.212Z,1188
2017-12-01T09:02:13.747Z,1172
2017-12-01T09:03:22.549Z,1124
2017-12-01T09:04:31.085Z,1124
2017-12-01T09:05:39.902Z,1072
2017-12-01T09:06:48.974Z,1044
2017-12-01T09:07:57.507Z,964
2017-12-01T09:09:06.577Z,1004
2017-12-01T09:10:15.380Z,896
2017-12-01T09:11:24.185Z,964
2017-12-01T09:12:32.989Z,1244
2017-12-01T09:13:42.059Z,1184
2017-12-01T09:14:50.599Z,1304
2017-12-01T09:15:59.133Z,1448
2017-12-01T09:17:07.937Z,1580
2017-12-01T09:18:16.482Z,1764
2017-12-01T09:19:25.285Z,1808
2017-12-01T09:20:33.817Z,1880
2017-12-01T09:21:42.351Z,1864
2017-12-01T09:22:51.151Z,1876
2017-12-01T09:23:59.960Z,1812
2017-12-01T09:25:09.307Z,1780
2017-12-01T09:26:18.111Z,1908
2017-12-01T09:27:26.916Z,2164
2017-12-01T09:28:35.546Z,2268
2017-12-01T09:29:44.153Z,2308
2017-12-01T09:30:53.102Z,2300
2017-12-01T09:32:02.281Z,2160
2017-12-01T09:33:11.275Z,1992
2017-12-01T09:34:19.814Z,1800
2017-12-01T09:35:28.368Z,1796
2017-12-01T09:36:37.439Z,1728
2017-12-01T09:37:45.979Z,1772
2017-12-01T09:38:55.050Z,1688
2017-12-01T09:40:03.587Z,1580
2017-12-01T09:41:12.395Z,1480
2017-12-01T09:42:21.200Z,1372
2017-12-01T09:43:30.267Z,1344
2017-12-01T09:44:38.821Z,1284
2017-12-01T09:45:47.357Z,1288
2017-12-01T09:46:56.060Z,1284
2017-12-01T09:48:04.899Z,1364
2017-12-01T09:49:13.733Z,1376
2017-12-01T09:50:22.802Z,1432
2017-12-01T09:51:31.603Z,1612
2017-12-01T09:52:40.677Z,1632
2017-12-01T09:53:49.223Z,1800
2017-12-01T09:54:58.296Z,1856
2017-12-01T09:56:07.377Z,2172
2017-12-01T09:57:16.444Z,2328
2017-12-01T09:58:25.519Z,2508
2017-12-01T09:59:34.325Z,3328
2017-12-01T10:00:42.857Z,3884
2017-12-01T10:01:51.728Z,3724
2017-12-01T10:03:00.210Z,3828
2017-12-01T10:04:09.022Z,3812
2017-12-01T10:05:17.827Z,3952
2017-12-01T10:06:26.899Z,3716
2017-12-01T10:07:35.699Z,3448
2017-12-01T10:08:44.500Z,3208
2017-12-01T10:09:53.308Z,3052
2017-12-01T10:11:02.112Z,3172
2017-12-01T10:12:11.116Z,3404
2017-12-01T10:13:20.040Z,3408
2017-12-01T10:14:28.581Z,3252
2017-12-01T10:15:37.385Z,3264
2017-12-01T10:16:46.242Z,3272
2017-12-01T10:17:55.045Z,2884
2017-12-01T10:19:03.582Z,2492
2017-12-01T10:20:12.390Z,2304
2017-12-01T10:21:21.457Z,2076
2017-12-01T10:22:30.267Z,1888
2017-12-01T10:23:39.076Z,1852
2017-12-01T10:24:47.674Z,2056
2017-12-01T10:25:56.219Z,2216
2017-12-01T10:27:04.749Z,2572
2017-12-01T10:28:13.827Z,2684
2017-12-01T10:29:22.632Z,2452
2017-12-01T10:30:31.434Z,2092
2017-12-01T10:31:40.236Z,2016
2017-12-01T10:32:48.775Z,2288
2017-12-01T10:33:57.847Z,2672
2017-12-01T10:35:06.386Z,3184
2017-12-01T10:36:14.920Z,3380
2017-12-01T10:37:23.462Z,3232
2017-12-01T10:38:32.266Z,3232
2017-12-01T10:39:40.806Z,3196
2017-12-01T10:40:49.609Z,3328
2017-12-01T10:41:58.432Z,3260
2017-12-01T10:43:07.223Z,3204
2017-12-01T10:44:15.756Z,3268
2017-12-01T10:45:24.295Z,3744
2017-12-01T10:46:33.100Z,3600
2017-12-01T10:47:42.174Z,2856
2017-12-01T10:48:50.711Z,2276
2017-12-01T10:49:59.257Z,2172
2017-12-01T10:51:07.794Z,2016
2017-12-01T10:52:16.874Z,1884
2017-12-01T10:53:25.725Z,2068
2017-12-01T10:54:34.261Z,2348
2017-12-01T10:55:43.085Z,2560
2017-12-01T10:56:51.626Z,2680
2017-12-01T10:58:00.163Z,3128
2017-12-01T10:59:08.700Z,3516
2017-12-01T11:00:17.241Z,3468
2017-12-01T11:01:26.041Z,3252
2017-12-01T11:02:34.583Z,3652
2017-12-01T11:03:43.655Z,3816
2017-12-01T11:04:52.456Z,3772
2017-12-01T11:06:01.260Z,3532
2017-12-01T11:07:10.347Z,3788
2017-12-01T11:08:18.878Z,4980
2017-12-01T11:09:27.694Z,5056
2017-12-01T11:10:36.500Z,4184
2017-12-01T11:11:45.573Z,4124
2017-12-01T11:12:54.108Z,3900
2017-12-01T11:14:02.646Z,3300
2017-12-01T11:15:12.003Z,3020
2017-12-01T11:16:20.563Z,2984
2017-12-01T11:17:29.370Z,3388
2017-12-01T11:18:38.437Z,3736
2017-12-01T11:19:47.241Z,3488
2017-12-01T11:20:55.778Z,3672
2017-12-01T11:22:04.325Z,3620
2017-12-01T11:23:13.789Z,3572
2017-12-01T11:24:22.352Z,3384
2017-12-01T11:25:31.431Z,3328
2017-12-01T11:26:40.233Z,3472
2017-12-01T11:27:49.310Z,3564
2017-12-01T11:28:58.115Z,3088
2017-12-01T11:30:07.188Z,2796
2017-12-01T11:31:15.735Z,2820
2017-12-01T11:32:25.135Z,2984
2017-12-01T11:33:34.010Z,3192
2017-12-01T11:34:42.548Z,3148
2017-12-01T11:35:51.353Z,3140
2017-12-01T11:37:00.161Z,2996
2017-12-01T11:38:08.828Z,2896
2017-12-01T11:39:17.440Z,3100
2017-12-01T11:40:25.927Z,2744
2017-12-01T11:41:35.274Z,2392
2017-12-01T11:42:44.078Z,1692
2017-12-01T11:43:52.617Z,1112
2017-12-01T11:45:01.155Z,812
2017-12-01T11:46:10.503Z,940
2017-12-01T11:47:19.040Z,1112
2017-12-01T11:48:27.932Z,1296
2017-12-01T11:49:36.861Z,1456
2017-12-01T11:50:45.455Z,1680
2017-12-01T11:51:54.527Z,1908
2017-12-01T11:53:03.332Z,1848
2017-12-01T11:54:11.937Z,1796
2017-12-01T11:55:20.475Z,1852
2017-12-01T11:56:29.036Z,1944
2017-12-01T11:57:37.553Z,1972
2017-12-01T11:58:46.094Z,1936
2017-12-01T11:59:54.898Z,1948
2017-12-01T12:01:03.702Z,2080
2017-12-01T12:02:12.241Z,2208
2017-12-01T12:03:20.783Z,2216
2017-12-01T12:04:29.589Z,2368
2017-12-01T12:05:38.132Z,2648
2017-12-01T12:06:46.985Z,2868
2017-12-01T12:07:55.521Z,3040
2017-12-01T12:09:04.060Z,2760
2017-12-01T12:10:12.880Z,2552
2017-12-01T12:11:21.688Z,2340
2017-12-01T12:12:30.491Z,2208
2017-12-01T12:13:39.028Z,2456
2017-12-01T12:14:47.566Z,2420
2017-12-01T12:15:56.372Z,2804
2017-12-01T12:17:04.913Z,3344
2017-12-01T12:18:13.454Z,3388
2017-12-01T12:19:21.987Z,3188
2017-12-01T12:20:31.058Z,2968
2017-12-01T12:21:39.860Z,2788
2017-12-01T12:22:48.411Z,2512
2017-12-01T12:23:56.949Z,3088
2017-12-01T12:25:05.484Z,3292
2017-12-01T12:26:14.025Z,3248
2017-12-01T12:27:23.568Z,3556
2017-12-01T12:28:32.387Z,3576
2017-12-01T12:29:41.464Z,3492
2017-12-01T12:30:50.679Z,3448
2017-12-01T12:31:59.480Z,3528
2017-12-01T12:33:08.286Z,3532
2017-12-01T12:34:17.355Z,3476
2017-12-01T12:35:26.522Z,3436
2017-12-01T12:36:35.341Z,3560
2017-12-01T12:37:44.414Z,3676
2017-12-01T12:38:52.969Z,3668
2017-12-01T12:40:01.507Z,3516
2017-12-01T12:41:10.053Z,3728
2017-12-01T12:42:19.141Z,3852
2017-12-01T12:43:27.952Z,3760
2017-12-01T12:44:36.497Z,3616
2017-12-01T12:45:45.312Z,3568
2017-12-01T12:46:54.126Z,3364
2017-12-01T12:48:02.945Z,3400
2017-12-01T12:49:11.498Z,3376
2017-12-01T12:50:20.465Z,3500
2017-12-01T12:51:29.277Z,3520
2017-12-01T12:52:38.089Z,3444
2017-12-01T12:53:46.904Z,3292
2017-12-01T12:54:55.715Z,3160
2017-12-01T12:56:04.570Z,3016
2017-12-01T12:57:13.143Z,2928
2017-12-01T12:58:21.688Z,2884
2017-12-01T12:59:30.501Z,2852
2017-12-01T13:00:39.305Z,2888
2017-12-01T13:01:48.377Z,2884
2017-12-01T13:02:57.446Z,2856
2017-12-01T13:04:06.289Z,2776
2017-12-01T13:05:15.100Z,2696
2017-12-01T13:06:23.641Z,2652
2017-12-01T13:07:32.717Z,2604
2017-12-01T13:08:41.787Z,2596
2017-12-01T13:09:50.862Z,2620
2017-12-01T13:10:59.664Z,2652
2017-12-01T13:12:08.205Z,2732
2017-12-01T13:13:16.740Z,2836
2017-12-01T13:14:25.555Z,2968
2017-12-01T13:15:34.626Z,3152
2017-12-01T13:16:43.161Z,3308
2017-12-01T13:17:51.699Z,3404
2017-12-01T13:19:00.588Z,3404
2017-12-01T13:20:09.121Z,3424
2017-12-01T13:21:18.465Z,3296
2017-12-01T13:22:27.008Z,3352
2017-12-01T13:23:35.546Z,3416
2017-12-01T13:24:44.085Z,3368
2017-12-01T13:25:52.885Z,3332
2017-12-01T13:27:01.693Z,3280
2017-12-01T13:28:10.503Z,3240
2017-12-01T13:29:19.303Z,3284
2017-12-01T13:30:28.130Z,3168
2017-12-01T13:31:36.991Z,2988
2017-12-01T13:32:45.556Z,2872
2017-12-01T13:33:54.636Z,2808
2017-12-01T13:35:03.706Z,2796
2017-12-01T13:36:12.530Z,2824
2017-12-01T13:37:21.930Z,2888
2017-12-01T13:38:30.737Z,2844
2017-12-01T13:39:39.815Z,2664
2017-12-01T13:40:49.155Z,2536
2017-12-01T13:41:57.963Z,2436
2017-12-01T13:43:06.504Z,2264
2017-12-01T13:44:15.312Z,1896
2017-12-01T13:45:24.120Z,1708
2017-12-01T13:46:33.195Z,1780
2017-12-01T13:47:42.267Z,1904
2017-12-01T13:48:51.080Z,1944
2017-12-01T13:49:59.884Z,1840
2017-12-01T13:51:08.426Z,1720
2017-12-01T13:52:17.231Z,1796
2017-12-01T13:53:26.035Z,1912
2017-12-01T13:54:34.574Z,2004
2017-12-01T13:55:43.114Z,1968
2017-12-01T13:56:52.196Z,1956
2017-12-01T13:58:00.997Z,1872
2017-12-01T13:59:09.531Z,1796
2017-12-01T14:00:18.603Z,1772
2017-12-01T14:01:27.407Z,1760
2017-12-01T14:02:36.215Z,1696
2017-12-01T14:03:45.021Z,1604
2017-12-01T14:04:53.830Z,1564
2017-12-01T14:06:02.905Z,1536
2017-12-01T14:07:11.443Z,1548
2017-12-01T14:08:20.515Z,1576
2017-12-01T14:09:29.587Z,1604
2017-12-01T14:10:38.126Z,1620
2017-12-01T14:11:46.662Z,1540
2017-12-01T14:12:55.746Z,1464
2017-12-01T14:14:04.749Z,1324
2017-12-01T14:15:13.559Z,1264
2017-12-01T14:16:23.379Z,1296
2017-12-01T14:17:32.916Z,1312
2017-12-01T14:18:41.454Z,1208
2017-12-01T14:19:50.031Z,1080
2017-12-01T14:20:58.838Z,964
2017-12-01T14:22:07.642Z,880
2017-12-01T14:23:16.442Z,832
2017-12-01T14:24:24.987Z,828
2017-12-01T14:25:33.537Z,828
2017-12-01T14:26:42.355Z,840
2017-12-01T14:27:51.200Z,852
2017-12-01T14:29:00.016Z,888
2017-12-01T14:30:08.811Z,956
2017-12-01T14:31:18.150Z,980
2017-12-01T14:32:26.955Z,980
2017-12-01T14:33:35.511Z,984
2017-12-01T14:34:44.051Z,948
2017-12-01T14:35:52.700Z,872
2017-12-01T14:37:01.236Z,832
2017-12-01T14:38:10.040Z,812
2017-12-01T14:39:18.848Z,800
2017-12-01T14:40:27.648Z,768
2017-12-01T14:41:36.724Z,736
2017-12-01T14:42:45.528Z,688
2017-12-01T14:43:54.336Z,648
2017-12-01T14:45:03.450Z,624
2017-12-01T14:46:12.936Z,580
2017-12-01T14:47:21.476Z,540
2017-12-01T14:48:30.375Z,548
2017-12-01T14:49:38.914Z,560
2017-12-01T14:50:47.715Z,576
2017-12-01T14:51:56.794Z,580
2017-12-01T14:53:05.598Z,592
2017-12-01T14:54:14.411Z,608
2017-12-01T14:55:23.486Z,616
2017-12-01T14:56:33.152Z,608
2017-12-01T14:57:42.233Z,612
2017-12-01T14:58:51.304Z,640
2017-12-01T14:59:59.837Z,636
2017-12-01T15:01:08.371Z,608
2017-12-01T15:02:17.171Z,588
2017-12-01T15:03:25.709Z,560
2017-12-01T15:04:34.522Z,540
2017-12-01T15:05:43.325Z,512
2017-12-01T15:06:51.859Z,512
2017-12-01T15:08:00.666Z,528
2017-12-01T15:09:09.204Z,512
2017-12-01T15:10:17.741Z,488
2017-12-01T15:11:26.815Z,460
2017-12-01T15:12:35.717Z,436
2017-12-01T15:13:44.521Z,416
2017-12-01T15:14:53.069Z,400
2017-12-01T15:16:02.158Z,384
2017-12-01T15:17:11.238Z,368
2017-12-01T15:18:19.784Z,352
2017-12-01T15:19:28.320Z,340
2017-12-01T15:20:36.858Z,320
2017-12-01T15:21:45.394Z,308
2017-12-01T15:22:54.224Z,292
2017-12-01T15:24:02.794Z,272
2017-12-01T15:25:11.864Z,256
2017-12-01T15:26:20.667Z,232
2017-12-01T15:27:29.737Z,216
2017-12-01T15:28:38.536Z,200
2017-12-01T15:29:47.337Z,188
2017-12-01T15:30:56.144Z,176
2017-12-01T15:32:04.687Z,168
2017-12-01T15:33:13.759Z,160
2017-12-01T15:34:22.293Z,152
2017-12-01T15:35:31.097Z,136
2017-12-01T15:36:39.636Z,132
2017-12-01T15:37:48.175Z,124
2017-12-01T15:38:56.718Z,116
2017-12-01T15:40:05.527Z,112
2017-12-01T15:41:14.328Z,104
2017-12-01T15:42:23.399Z,100
2017-12-01T15:43:32.207Z,96
2017-12-01T15:44:40.753Z,92
2017-12-01T15:45:49.297Z,88
2017-12-01T15:46:58.109Z,88
2017-12-01T15:48:06.919Z,84
2017-12-01T15:49:16.078Z,80
2017-12-01T15:50:24.885Z,80
2017-12-01T15:51:33.708Z,76
2017-12-01T15:52:42.517Z,80
2017-12-01T15:53:51.115Z,80
2017-12-01T15:55:00.186Z,76
2017-12-01T15:56:08.998Z,76
2017-12-01T15:57:17.803Z,76
2017-12-01T15:58:26.610Z,76
2017-12-01T15:59:35.140Z,72
2017-12-01T16:00:43.947Z,76
2017-12-01T16:01:52.751Z,76
2017-12-01T16:03:01.834Z,76
2017-12-01T16:04:10.748Z,76
2017-12-01T16:05:19.568Z,76